FlightSource - Aviation Photo Database

World Wide Airport Lookup


Search by ICAO
Or
Search by City

FlightSource.ca - Aviation Photo Database - Wellington International Airport Information
Airport Identification
Name: Wellington International Airport
ICAO: NZWN
IATA: WLG
Airport Location
City: Wellington
Region: WGN
Country: New Zealand
Continent: OC
Latitude: -41.3272
Longitude: 174.805
Airport Information
Type: Large Airport
Elevation: 41 Feet ASL
Flight Status: NZWN
More Info: NZWN
Airport Weather    
Metar: NZWN 230500Z AUTO 01016KT 9999 NCD 14/10 Q1011 NOSIG
TAF:


Advertisement